Time;durP1;ratioP1;P1;durP2;ratioP2;P2;SDS_P1;SDS_P2;PMS_P1;PMS_P2;Temp;Humidity;BMP_temperature;BMP_pressure;BME280_temperature;BME280_humidity;BME280_pressure;Samples;Min_cycle;Max_cycle;Signal;HPM_P1;HPM_P2
2022/04/06 00:00:08;;;;;;;22.85;11.55;;;;;;;7.64;96.63;100039.06;2063561;28;20094;-63
2022/04/06 00:01:10;;;;;;;17.98;10.63;;;;;;;7.65;96.56;100043.47;2063500;28;20520;-63
2022/04/06 00:02:12;;;;;;;16.83;10.65;;;;;;;7.64;96.32;100041.72;2062474;28;44693;-63
2022/04/06 00:03:14;;;;;;;18.77;11.40;;;;;;;7.63;96.64;100029.31;2062652;28;45672;-63
2022/04/06 00:04:16;;;;;;;20.60;11.10;;;;;;;7.62;95.95;100043.53;2062606;28;46701;-63
2022/04/06 00:05:17;;;;;;;20.17;11.80;;;;;;;7.64;96.71;100047.06;2062799;28;44894;-63
2022/04/06 00:06:21;;;;;;;17.08;11.32;;;;;;;7.63;96.52;100041.75;2062477;28;44056;-63
2022/04/06 00:07:44;;;;;;;20.52;11.00;;;;;;;7.62;96.59;100040.00;2063067;28;20173;-62
2022/04/06 00:08:46;;;;;;;21.33;12.07;;;;;;;7.61;95.86;100036.47;2062999;28;33643;-63
2022/04/06 00:09:48;;;;;;;19.10;11.25;;;;;;;7.62;96.75;100034.66;2062216;28;46180;-63
2022/04/06 00:10:49;;;;;;;20.50;11.43;;;;;;;7.61;96.41;100031.16;2062564;28;43340;-63
2022/04/06 00:11:51;;;;;;;20.70;11.13;;;;;;;7.61;96.38;100039.13;2062489;28;45376;-63
2022/04/06 00:12:53;;;;;;;19.60;11.80;;;;;;;7.60;95.87;100033.84;2062847;28;45591;-62
2022/04/06 00:13:57;;;;;;;19.77;11.00;;;;;;;7.59;96.46;100032.97;2063565;28;20110;-63
2022/04/06 00:14:58;;;;;;;20.10;11.20;;;;;;;7.59;96.82;100032.06;2062708;28;44806;-63
2022/04/06 00:16:01;;;;;;;16.52;10.10;;;;;;;7.59;96.42;100037.41;2062107;28;43169;-63
2022/04/06 00:17:05;;;;;;;19.20;11.32;;;;;;;7.58;95.94;100035.69;2062803;28;37322;-63
2022/04/06 00:18:07;;;;;;;21.25;11.35;;;;;;;7.58;96.70;100036.53;2062672;28;25765;-63
2022/04/06 00:19:11;;;;;;;19.98;11.45;;;;;;;7.57;96.17;100029.47;2062980;28;45021;-63
2022/04/06 00:20:14;;;;;;;16.83;10.98;;;;;;;7.56;96.44;100030.38;2069494;28;46045;-63
2022/04/06 00:21:16;;;;;;;19.33;10.88;;;;;;;7.56;96.42;100038.38;2063078;28;43137;-63
2022/04/06 00:22:18;;;;;;;19.45;11.75;;;;;;;7.56;96.69;100027.72;2062737;28;34643;-63
2022/04/06 00:23:19;;;;;;;19.77;11.35;;;;;;;7.55;96.81;100035.75;2062983;28;45119;-63
2022/04/06 00:24:21;;;;;;;19.38;11.40;;;;;;;7.55;96.28;100031.28;2062765;28;44765;-63
2022/04/06 00:25:24;;;;;;;17.92;11.25;;;;;;;7.54;96.74;100029.53;2062989;28;45993;-63
2022/04/06 00:26:25;;;;;;;18.65;11.27;;;;;;;7.53;96.82;100017.13;2062804;28;43463;-63
2022/04/06 00:27:27;;;;;;;19.63;11.20;;;;;;;7.53;96.52;100019.78;2062884;28;45172;-63
2022/04/06 00:28:30;;;;;;;18.75;10.65;;;;;;;7.52;96.49;100020.72;2062704;28;21074;-63
2022/04/06 00:29:31;;;;;;;18.70;10.32;;;;;;;7.52;96.11;100019.81;2062365;28;45047;-63
2022/04/06 00:30:34;;;;;;;20.75;11.27;;;;;;;7.52;97.08;100025.16;2062604;28;37437;-63
2022/04/06 00:31:35;;;;;;;24.30;10.95;;;;;;;7.52;96.53;100019.81;2062819;28;45824;-63
2022/04/06 00:32:37;;;;;;;21.33;10.73;;;;;;;7.51;96.81;100012.78;2062435;28;45309;-63
2022/04/06 00:33:39;;;;;;;19.52;11.02;;;;;;;7.51;96.70;100015.44;2063148;28;23018;-62
2022/04/06 00:36:01;;;;;;;23.73;11.55;;;;;;;7.51;96.31;100012.78;2063468;28;45432;-63
2022/04/06 00:37:03;;;;;;;20.80;11.45;;;;;;;7.50;96.42;100011.00;2063669;28;43732;-63
2022/04/06 00:38:07;;;;;;;19.38;10.93;;;;;;;7.50;97.14;100016.34;2063358;28;44227;-64
2022/04/06 00:39:09;;;;;;;19.85;10.60;;;;;;;7.49;97.14;100020.78;2062918;28;36184;-65
2022/04/06 00:40:11;;;;;;;23.20;11.77;;;;;;;7.49;96.82;100018.13;2063639;28;43346;-65
2022/04/06 00:41:14;;;;;;;19.27;10.68;;;;;;;7.49;96.31;100019.94;2064591;28;20047;-64
2022/04/06 00:42:16;;;;;;;19.63;11.95;;;;;;;7.49;96.78;100019.94;2063916;28;45936;-64
2022/04/06 00:43:18;;;;;;;23.83;11.75;;;;;;;7.49;96.88;100015.47;2064217;28;44139;-65
2022/04/06 00:44:20;;;;;;;20.90;11.75;;;;;;;7.48;97.28;100012.84;2064250;28;45555;-64
2022/04/06 00:45:24;;;;;;;21.42;12.27;;;;;;;7.47;97.06;100006.66;2064111;28;43788;-64
2022/04/06 00:46:25;;;;;;;19.23;11.48;;;;;;;7.46;96.46;100004.88;2064222;28;45038;-64
2022/04/06 00:47:27;;;;;;;22.67;12.65;;;;;;;7.46;96.65;100012.88;2063731;28;46331;-64
2022/04/06 00:48:29;;;;;;;18.95;11.95;;;;;;;7.45;97.29;100004.00;2063527;28;44930;-62
2022/04/06 00:49:31;;;;;;;19.40;12.27;;;;;;;7.45;96.88;100003.16;2064786;28;23669;-62
2022/04/06 00:50:34;;;;;;;23.15;12.50;;;;;;;7.42;96.91;99997.88;2063889;28;45751;-63
2022/04/06 00:51:38;;;;;;;25.88;12.80;;;;;;;7.42;96.71;99997.88;2064390;28;23660;-63
2022/04/06 00:52:40;;;;;;;22.92;11.93;;;;;;;7.42;96.59;100003.22;2063922;28;44230;-62
2022/04/06 00:53:41;;;;;;;28.48;14.70;;;;;;;7.42;97.10;100001.41;2063277;28;42492;-63
2022/04/06 00:54:43;;;;;;;26.85;13.05;;;;;;;7.42;97.42;100009.41;2063546;28;44026;-63
2022/04/06 00:55:45;;;;;;;26.25;14.77;;;;;;;7.43;97.68;100002.31;2064034;28;46064;-63
2022/04/06 00:56:49;;;;;;;22.13;13.18;;;;;;;7.42;97.08;100004.09;2065005;28;20051;-63
2022/04/06 00:57:50;;;;;;;25.30;14.23;;;;;;;7.42;96.97;99997.88;2063290;28;46191;-63
2022/04/06 00:58:55;;;;;;;28.23;14.32;;;;;;;7.43;97.59;100005.84;2064971;28;20033;-63
2022/04/06 00:59:57;;;;;;;23.67;14.68;;;;;;;7.44;97.46;100001.38;2063205;28;45169;-63
2022/04/06 01:00:58;;;;;;;29.10;14.13;;;;;;;7.43;96.78;100000.53;2062922;28;46006;-63
2022/04/06 01:02:00;;;;;;;25.20;14.20;;;;;;;7.44;97.14;100006.72;2063567;28;43446;-63
2022/04/06 01:03:02;;;;;;;32.10;15.18;;;;;;;7.43;97.28;99999.66;2064154;28;46521;-63
2022/04/06 01:04:04;;;;;;;30.02;15.55;;;;;;;7.43;97.35;100004.97;2071038;28;44680;-63
2022/04/06 01:05:07;;;;;;;24.23;14.25;;;;;;;7.44;97.35;100004.06;2071400;28;44136;-63
2022/04/06 01:06:09;;;;;;;31.83;15.40;;;;;;;7.44;97.44;99996.06;2063502;28;45359;-63
2022/04/06 01:07:12;;;;;;;29.85;15.27;;;;;;;7.44;96.95;99998.72;2063934;28;42155;-63
2022/04/06 01:08:15;;;;;;;28.38;14.70;;;;;;;7.45;97.21;99993.38;2064165;28;34610;-63
2022/04/06 01:09:18;;;;;;;28.55;15.77;;;;;;;7.44;97.18;99991.59;2072228;28;31280;-64
2022/04/06 01:10:20;;;;;;;28.58;15.18;;;;;;;7.45;97.13;99985.38;2063111;28;44156;-63
2022/04/06 01:11:23;;;;;;;27.42;15.10;;;;;;;7.45;96.81;99993.38;2063179;28;44966;-66
2022/04/06 01:12:26;;;;;;;26.35;16.20;;;;;;;7.45;97.22;99990.69;2064256;28;31907;-63
2022/04/06 01:13:29;;;;;;;30.77;14.82;;;;;;;7.46;96.80;99988.91;2063952;28;43900;-63
2022/04/06 01:14:31;;;;;;;31.77;15.77;;;;;;;7.46;96.98;99988.91;2063785;28;45856;-65
2022/04/06 01:15:33;;;;;;;30.98;15.88;;;;;;;7.44;97.43;99983.59;2070857;28;44127;-62
2022/04/06 01:16:35;;;;;;;30.45;15.98;;;;;;;7.45;97.58;99984.50;2071183;28;45154;-64
2022/04/06 01:17:36;;;;;;;33.20;16.83;;;;;;;7.44;97.40;99982.75;2064368;28;37301;-62
2022/04/06 01:18:40;;;;;;;28.13;15.57;;;;;;;7.44;97.70;99988.06;2063523;28;44324;-64
2022/04/06 01:19:45;;;;;;;25.70;15.77;;;;;;;7.44;97.61;99985.41;2064037;28;39808;-65
2022/04/06 01:20:46;;;;;;;26.63;14.90;;;;;;;7.44;96.98;99988.06;2064150;28;20086;-66
2022/04/06 01:21:48;;;;;;;27.42;15.50;;;;;;;7.43;97.06;99984.53;2063614;28;45308;-64
2022/04/06 01:22:50;;;;;;;25.02;14.60;;;;;;;7.44;96.74;99974.75;2063650;28;43369;-65
2022/04/06 01:23:52;;;;;;;31.08;16.02;;;;;;;7.43;96.76;99979.22;2063861;28;45513;-65
2022/04/06 01:24:54;;;;;;;29.73;16.67;;;;;;;7.44;97.48;99980.06;2063421;28;45618;-64
2022/04/06 01:25:56;;;;;;;32.50;16.52;;;;;;;7.45;96.75;99973.84;2063932;28;43463;-64
2022/04/06 01:27:01;;;;;;;27.95;15.85;;;;;;;7.44;96.84;99974.75;2063918;28;20101;-65
2022/04/06 01:28:03;;;;;;;28.15;15.85;;;;;;;7.44;96.66;99975.63;2063194;28;43358;-65
2022/04/06 01:29:05;;;;;;;35.03;17.33;;;;;;;7.44;97.21;99980.06;2064630;28;20895;-63
2022/04/06 01:30:07;;;;;;;29.35;16.60;;;;;;;7.43;97.33;99976.56;2064029;28;46073;-65
2022/04/06 01:31:10;;;;;;;32.80;16.90;;;;;;;7.44;96.73;99975.63;2063638;28;44591;-65
2022/04/06 01:32:15;;;;;;;31.00;17.67;;;;;;;7.44;97.23;99977.41;2063882;28;44543;-65
2022/04/06 01:33:17;;;;;;;28.45;15.40;;;;;;;7.44;97.02;99972.09;2064030;28;20050;-65
2022/04/06 01:34:19;;;;;;;32.38;16.00;;;;;;;7.43;97.26;99973.88;2064488;28;20039;-65
2022/04/06 01:35:21;;;;;;;29.85;16.73;;;;;;;7.44;96.87;99969.44;2064185;28;20046;-65
2022/04/06 01:36:23;;;;;;;29.00;17.58;;;;;;;7.43;96.89;99971.22;2063277;28;44290;-64
2022/04/06 01:37:24;;;;;;;33.38;17.05;;;;;;;7.43;97.03;99967.69;2063081;28;41963;-65
2022/04/06 01:38:27;;;;;;;32.13;17.30;;;;;;;7.44;97.53;99964.09;2063716;28;45567;-65
2022/04/06 01:39:28;;;;;;;29.48;16.52;;;;;;;7.43;97.84;99973.03;2063236;28;45117;-65
2022/04/06 01:40:30;;;;;;;35.25;17.70;;;;;;;7.42;97.46;99969.47;2062987;28;46139;-65
2022/04/06 01:41:33;;;;;;;29.83;16.92;;;;;;;7.43;97.27;99968.56;2063263;28;45055;-65
2022/04/06 01:42:35;;;;;;;34.35;17.15;;;;;;;7.43;96.96;99967.69;2062679;28;45399;-64
2022/04/06 01:43:37;;;;;;;30.48;17.15;;;;;;;7.43;97.27;99967.69;2062786;28;45912;-64
2022/04/06 01:44:39;;;;;;;31.90;18.05;;;;;;;7.43;97.33;99963.22;2064709;28;20066;-64
2022/04/06 01:45:41;;;;;;;32.47;16.70;;;;;;;7.42;97.14;99966.81;2063135;28;45890;-64
2022/04/06 01:46:45;;;;;;;34.67;17.35;;;;;;;7.43;97.15;99962.38;2063124;28;27359;-64
2022/04/06 01:47:46;;;;;;;35.30;17.10;;;;;;;7.42;97.25;99964.13;2062868;28;44473;-64
2022/04/06 01:52:49;;;;;;;;;;;;;;;7.42;97.63;99958.81;2063808;28;45594;-64
2022/04/06 01:53:51;;;;;;;36.05;18.60;;;;;;;7.44;97.60;99958.78;2071153;28;43855;-64
2022/04/06 01:55:11;;;;;;;40.90;19.33;;;;;;;7.43;97.75;99952.59;2070823;28;43847;-64
2022/04/06 01:56:12;;;;;;;35.72;19.75;;;;;;;7.44;97.72;99961.44;2063659;28;44356;-65
2022/04/06 01:57:16;;;;;;;40.65;20.63;;;;;;;7.44;97.48;99958.78;2063692;28;44288;-64
2022/04/06 01:58:18;;;;;;;36.45;21.23;;;;;;;7.45;97.58;99960.53;2063810;28;26735;-64
2022/04/06 01:59:19;;;;;;;33.72;18.98;;;;;;;7.45;97.21;99960.53;2063592;28;45321;-63
2022/04/06 02:00:23;;;;;;;45.90;20.88;;;;;;;7.46;97.37;99951.63;2063830;28;33959;-64
2022/04/06 02:01:25;;;;;;;41.47;22.05;;;;;;;7.46;98.04;99951.63;2070436;28;42048;-64
2022/04/06 02:02:30;;;;;;;37.30;21.40;;;;;;;7.47;97.55;99957.84;2070586;28;45438;-64
2022/04/06 02:03:32;;;;;;;38.95;20.88;;;;;;;7.48;97.83;99954.25;2063328;28;46077;-63
2022/04/06 02:04:34;;;;;;;42.05;23.30;;;;;;;7.49;97.72;99951.53;2062620;28;45232;-63
2022/04/06 02:05:36;;;;;;;37.92;21.95;;;;;;;7.49;97.96;99953.34;2063563;28;44802;-64
2022/04/06 02:06:37;;;;;;;44.70;21.60;;;;;;;7.50;97.88;99949.75;2063181;28;44400;-64
2022/04/06 02:07:39;;;;;;;38.72;23.35;;;;;;;7.51;97.69;99954.16;2063484;28;45737;-64
2022/04/06 02:08:41;;;;;;;39.35;22.67;;;;;;;7.53;97.56;99952.34;2062582;28;45620;-64
2022/04/06 02:09:43;;;;;;;45.15;23.27;;;;;;;7.51;97.47;99949.72;2063046;28;45152;-64
2022/04/06 02:10:45;;;;;;;43.53;24.15;;;;;;;7.52;97.56;99948.81;2064630;28;20050;-64
2022/04/06 02:11:48;;;;;;;44.40;23.13;;;;;;;7.52;97.37;99956.81;2063585;28;44714;-64
2022/04/06 02:12:52;;;;;;;40.35;22.48;;;;;;;7.53;97.59;99947.88;2071410;28;45483;-64
2022/04/06 02:13:57;;;;;;;42.33;24.10;;;;;;;7.53;97.74;99942.56;2071361;28;46733;-64
2022/04/06 02:14:59;;;;;;;46.53;23.40;;;;;;;7.53;97.34;99945.22;2070767;28;20832;-64
2022/04/06 02:16:01;;;;;;;40.85;23.15;;;;;;;7.55;97.51;99948.72;2071094;28;29793;-64
2022/04/06 02:17:04;;;;;;;41.00;23.35;;;;;;;7.55;97.48;99950.50;2070939;28;46015;-64
2022/04/06 02:18:06;;;;;;;40.15;22.55;;;;;;;7.55;97.83;99943.38;2071486;28;20043;-64
2022/04/06 02:19:11;;;;;;;38.75;22.98;;;;;;;7.56;97.37;99938.94;2063148;28;35698;-64
2022/04/06 02:20:13;;;;;;;41.78;23.52;;;;;;;7.57;97.75;99938.91;2063007;28;44210;-64
2022/04/06 02:21:18;;;;;;;41.67;23.63;;;;;;;7.57;97.28;99944.25;2062148;28;43571;-64
2022/04/06 02:22:20;;;;;;;46.65;24.55;;;;;;;7.58;97.60;99931.78;2063284;28;43948;-64
2022/04/06 02:23:22;;;;;;;43.55;24.20;;;;;;;7.59;97.15;99931.75;2063067;28;43874;-64
2022/04/06 02:24:24;;;;;;;41.22;22.92;;;;;;;7.59;97.20;99936.19;2063719;28;45075;-63
2022/04/06 02:25:26;;;;;;;40.78;23.17;;;;;;;7.59;97.06;99934.41;2063661;28;42013;-64
2022/04/06 02:26:28;;;;;;;42.92;24.45;;;;;;;7.59;97.57;99929.09;2063623;28;45349;-63
2022/04/06 02:27:30;;;;;;;44.20;26.40;;;;;;;7.60;97.26;99933.47;2062946;28;46187;-64
2022/04/06 02:28:32;;;;;;;46.08;24.05;;;;;;;7.60;97.48;99930.81;2062592;28;43857;-64
2022/04/06 02:29:35;;;;;;;40.90;25.10;;;;;;;7.60;97.11;99922.81;2063472;28;20143;-64
2022/04/06 02:30:37;;;;;;;46.03;25.27;;;;;;;7.60;97.30;99928.16;2062162;28;44223;-64
2022/04/06 02:31:41;;;;;;;50.72;26.65;;;;;;;7.60;97.04;99920.16;2062749;28;20081;-64
2022/04/06 02:32:44;;;;;;;48.20;25.13;;;;;;;7.61;96.95;99926.38;2063144;28;44858;-64
2022/04/06 02:33:48;;;;;;;33.95;23.08;;;;;;;7.60;97.59;99928.16;2063301;28;20078;-64
2022/04/06 02:34:50;;;;;;;44.17;25.33;;;;;;;7.61;97.09;99918.41;2062666;28;43980;-64
2022/04/06 02:35:52;;;;;;;44.85;25.15;;;;;;;7.62;97.12;99914.78;2063089;28;43386;-64
2022/04/06 02:36:53;;;;;;;44.40;24.58;;;;;;;7.61;96.79;99919.25;2063042;28;44286;-64
2022/04/06 02:37:55;;;;;;;41.38;24.90;;;;;;;7.61;97.56;99916.59;2063119;28;45312;-64
2022/04/06 02:38:57;;;;;;;45.85;24.63;;;;;;;7.61;97.74;99905.94;2063374;28;43024;-64
2022/04/06 02:39:58;;;;;;;44.95;24.55;;;;;;;7.61;97.48;99908.59;2063433;28;32664;-64
2022/04/06 02:41:00;;;;;;;50.47;25.55;;;;;;;7.61;97.13;99905.06;2063135;28;46031;-64
2022/04/06 02:42:03;;;;;;;46.92;25.67;;;;;;;7.61;97.10;99907.75;2062488;28;45511;-64
2022/04/06 02:43:05;;;;;;;46.90;25.23;;;;;;;7.60;96.65;99898.84;2062698;28;46576;-63
2022/04/06 02:44:07;;;;;;;46.13;25.02;;;;;;;7.61;97.20;99908.59;2063089;28;43266;-63
2022/04/06 02:45:09;;;;;;;41.58;23.70;;;;;;;7.61;97.22;99905.06;2063110;28;43941;-63
2022/04/06 02:46:10;;;;;;;44.13;25.45;;;;;;;7.61;97.25;99911.25;2062863;28;45800;-63
2022/04/06 02:47:12;;;;;;;49.33;25.90;;;;;;;7.60;97.39;99904.19;2070527;28;44512;-64
2022/04/06 02:48:16;;;;;;;46.20;25.27;;;;;;;7.61;97.35;99907.75;2069955;28;39751;-64
2022/04/06 02:49:18;;;;;;;46.30;24.92;;;;;;;7.60;97.11;99908.63;2063449;28;43299;-64
2022/04/06 02:50:21;;;;;;;41.47;23.40;;;;;;;7.60;96.71;99901.50;2063015;28;43056;-64
2022/04/06 02:51:22;;;;;;;47.92;24.35;;;;;;;7.60;97.04;99904.19;2061982;28;45599;-64
2022/04/06 02:52:24;;;;;;;45.15;22.65;;;;;;;7.60;97.07;99896.19;2062636;28;45571;-64
2022/04/06 02:53:26;;;;;;;39.85;23.52;;;;;;;7.61;96.34;99905.94;2063158;28;46364;-64
2022/04/06 02:54:28;;;;;;;41.13;22.77;;;;;;;7.60;96.74;99906.84;2063018;28;43519;-64
2022/04/06 02:55:29;;;;;;;44.45;22.73;;;;;;;7.60;96.27;99904.19;2063212;28;34632;-63
2022/04/06 02:56:31;;;;;;;41.35;23.42;;;;;;;7.58;96.48;99898.03;2062215;28;43740;-63
2022/04/06 02:57:33;;;;;;;39.45;22.10;;;;;;;7.60;96.30;99890.84;2064126;28;30721;-64
2022/04/06 02:58:34;;;;;;;42.25;22.33;;;;;;;7.60;96.19;99888.19;2061730;28;42953;-64
2022/04/06 02:59:39;;;;;;;36.55;21.20;;;;;;;7.60;95.81;99890.84;2063248;28;45634;-63
2022/04/06 03:00:41;;;;;;;40.35;21.30;;;;;;;7.61;95.77;99891.75;2063147;28;40047;-63
2022/04/06 03:01:43;;;;;;;41.85;22.90;;;;;;;7.60;95.94;99898.84;2063284;28;25066;-63
2022/04/06 03:02:46;;;;;;;37.10;21.52;;;;;;;7.61;96.49;99897.94;2062834;28;42430;-64
2022/04/06 03:03:50;;;;;;;40.50;20.08;;;;;;;7.62;96.02;99893.47;2064955;28;44379;-64
2022/04/06 03:04:52;;;;;;;36.50;20.73;;;;;;;7.61;95.70;99887.28;2062015;28;36916;-63
2022/04/06 03:05:53;;;;;;;37.72;20.85;;;;;;;7.62;95.72;99888.16;2062141;28;45056;-64
2022/04/06 03:06:55;;;;;;;38.22;21.75;;;;;;;7.60;96.43;99880.19;2062015;28;46493;-64
2022/04/06 03:07:57;;;;;;;38.28;20.88;;;;;;;7.60;95.74;99879.34;2055204;28;44388;-63
2022/04/06 03:08:58;;;;;;;39.22;19.83;;;;;;;7.61;96.09;99883.75;2054906;28;44684;-65
2022/04/06 03:10:01;;;;;;;40.60;20.45;;;;;;;7.59;95.66;99883.81;2054915;28;43747;-64
2022/04/06 03:11:03;;;;;;;35.42;20.58;;;;;;;7.60;95.96;99877.53;2055235;28;43304;-64
2022/04/06 03:12:06;;;;;;;34.28;19.65;;;;;;;7.60;95.97;99879.34;2054344;28;36872;-64
2022/04/06 03:13:09;;;;;;;37.47;18.42;;;;;;;7.58;95.95;99887.38;2054880;28;29945;-64
2022/04/06 03:14:10;;;;;;;35.90;18.25;;;;;;;7.59;95.98;99883.81;2055071;28;38803;-63
2022/04/06 03:15:12;;;;;;;39.67;19.38;;;;;;;7.58;95.77;99886.50;2055219;28;46585;-64
2022/04/06 03:16:14;;;;;;;39.58;20.25;;;;;;;7.58;95.73;99882.03;2063262;28;43881;-63
2022/04/06 03:17:18;;;;;;;42.00;19.55;;;;;;;7.59;96.01;99883.81;2063029;28;46276;-63
2022/04/06 03:18:20;;;;;;;39.22;18.80;;;;;;;7.59;95.49;99885.56;2070252;28;44744;-66
2022/04/06 03:19:21;;;;;;;35.20;18.90;;;;;;;7.58;95.64;99876.72;2070591;28;43668;-66
2022/04/06 03:20:23;;;;;;;38.42;17.63;;;;;;;7.57;95.46;99877.66;2062917;28;45279;-64
2022/04/06 03:21:25;;;;;;;36.65;19.38;;;;;;;7.59;95.64;99877.56;2062985;28;43538;-63
2022/04/06 03:22:26;;;;;;;34.65;17.98;;;;;;;7.57;95.76;99874.97;2062393;28;43053;-64
2022/04/06 03:23:28;;;;;;;35.80;17.20;;;;;;;7.59;96.02;99875.81;2063133;28;22962;-64
2022/04/06 03:24:30;;;;;;;41.78;18.35;;;;;;;7.59;95.74;99874.91;2062895;28;26810;-64
2022/04/06 03:25:32;;;;;;;35.95;17.95;;;;;;;7.58;95.41;99871.38;2062360;28;44778;-64
2022/04/06 03:26:33;;;;;;;31.45;16.92;;;;;;;7.59;95.29;99872.25;2063047;28;43346;-64
2022/04/06 03:27:36;;;;;;;36.25;17.35;;;;;;;7.58;95.81;99876.72;2062596;28;45753;-65
2022/04/06 03:28:38;;;;;;;32.03;18.25;;;;;;;7.58;94.90;99868.72;2062860;28;45509;-64
2022/04/06 03:29:40;;;;;;;41.28;18.02;;;;;;;7.59;95.52;99870.47;2062992;28;38318;-65
2022/04/06 03:30:43;;;;;;;33.50;16.35;;;;;;;7.59;95.58;99869.59;2063525;28;20043;-64
2022/04/06 03:31:45;;;;;;;36.25;16.85;;;;;;;7.59;95.11;99866.91;2062772;28;43009;-64
2022/04/06 03:32:47;;;;;;;31.83;15.23;;;;;;;7.61;94.74;99868.66;2062146;28;44190;-63
2022/04/06 03:33:48;;;;;;;33.55;16.30;;;;;;;7.61;95.05;99865.13;2062855;28;38672;-64
2022/04/06 03:34:53;;;;;;;35.60;15.75;;;;;;;7.61;94.73;99863.31;2062612;28;44252;-64
2022/04/06 03:35:54;;;;;;;32.15;15.07;;;;;;;7.62;94.68;99859.72;2062206;28;44803;-63
2022/04/06 03:36:56;;;;;;;35.88;15.82;;;;;;;7.62;94.91;99857.06;2062415;28;44475;-63
2022/04/06 03:37:58;;;;;;;32.45;15.60;;;;;;;7.63;94.94;99864.13;2062816;28;44046;-64
2022/04/06 03:39:00;;;;;;;30.52;15.05;;;;;;;7.63;94.40;99853.47;2062747;28;44947;-63
2022/04/06 03:40:05;;;;;;;30.25;14.10;;;;;;;7.65;94.33;99858.78;2062927;28;39517;-64
2022/04/06 03:41:07;;;;;;;27.58;14.25;;;;;;;7.64;93.67;99863.25;2063010;28;45161;-64
2022/04/06 03:42:09;;;;;;;28.88;15.27;;;;;;;7.65;94.13;99856.09;2062816;28;44487;-63
2022/04/06 03:43:10;;;;;;;25.95;14.00;;;;;;;7.65;93.57;99853.44;2063316;28;32567;-64
2022/04/06 03:44:12;;;;;;;29.63;14.38;;;;;;;7.67;94.30;99848.06;2062912;28;46351;-64
2022/04/06 03:45:14;;;;;;;26.58;13.18;;;;;;;7.67;93.92;99861.41;2063344;28;26871;-64
2022/04/06 03:46:16;;;;;;;29.02;13.48;;;;;;;7.67;93.64;99853.41;2062745;28;45036;-64
2022/04/06 03:47:18;;;;;;;30.60;14.30;;;;;;;7.67;93.93;99851.59;2062765;28;45252;-64
2022/04/06 03:48:22;;;;;;;24.27;13.63;;;;;;;7.67;93.47;99858.72;2062818;28;44387;-63
2022/04/06 03:49:24;;;;;;;30.23;13.10;;;;;;;7.65;93.61;99859.63;2063231;28;37255;-63
2022/04/06 03:50:28;;;;;;;26.33;12.95;;;;;;;7.66;93.42;99852.50;2062510;28;43344;-63
2022/04/06 03:51:29;;;;;;;26.15;12.73;;;;;;;7.65;93.82;99851.66;2063076;28;45324;-64
2022/04/06 03:52:31;;;;;;;26.83;12.77;;;;;;;7.67;93.95;99853.41;2063259;28;45894;-64
2022/04/06 03:53:33;;;;;;;27.98;12.75;;;;;;;7.66;93.84;99847.19;2063043;28;44148;-64
2022/04/06 03:54:34;;;;;;;33.20;13.85;;;;;;;7.66;92.76;99847.19;2063227;28;33046;-64
2022/04/06 03:55:36;;;;;;;27.95;12.63;;;;;;;7.66;92.81;99863.16;2063094;28;45168;-64
2022/04/06 03:56:38;;;;;;;25.70;12.57;;;;;;;7.67;92.46;99848.94;2062794;28;45161;-65
2022/04/06 03:57:39;;;;;;;19.48;11.68;;;;;;;7.67;93.21;99853.41;2062986;28;40538;-64
2022/04/06 03:58:44;;;;;;;24.20;12.30;;;;;;;7.66;93.09;99849.84;2062929;28;44121;-65
2022/04/06 03:59:45;;;;;;;25.35;12.02;;;;;;;7.67;92.86;99851.59;2061765;28;46565;-65
2022/04/06 04:00:47;;;;;;;26.88;12.50;;;;;;;7.67;92.63;99848.06;2062345;28;44444;-64
2022/04/06 04:01:49;;;;;;;27.77;11.35;;;;;;;7.67;93.22;99845.41;2058137;28;43087;-63
2022/04/06 04:02:50;;;;;;;23.55;11.85;;;;;;;7.65;92.69;99851.66;2063876;28;30438;-65
2022/04/06 04:03:54;;;;;;;24.02;11.43;;;;;;;7.67;92.10;99845.41;2063043;28;44057;-63
2022/04/06 04:04:58;;;;;;;22.92;11.48;;;;;;;7.65;92.47;99848.97;2063076;28;45577;-64
2022/04/06 04:06:00;;;;;;;23.10;11.50;;;;;;;7.65;92.41;99846.31;2062757;28;31139;-64
2022/04/06 04:07:02;;;;;;;26.00;10.93;;;;;;;7.65;92.46;99853.44;2062805;28;45505;-62
2022/04/06 04:08:04;;;;;;;23.75;11.60;;;;;;;7.64;92.49;99841.03;2063204;28;20130;-64
2022/04/06 04:09:05;;;;;;;27.27;11.57;;;;;;;7.65;92.83;99848.97;2062740;28;44514;-63
2022/04/06 04:10:09;;;;;;;20.13;10.60;;;;;;;7.64;92.88;99849.91;2062253;28;45689;-63
2022/04/06 04:11:11;;;;;;;23.50;10.50;;;;;;;7.64;92.31;99857.00;2063238;28;33205;-63
2022/04/06 04:12:13;;;;;;;21.35;10.52;;;;;;;7.63;92.23;99840.16;2062449;28;44922;-63
2022/04/06 04:13:14;;;;;;;25.52;10.27;;;;;;;7.64;92.79;99844.59;2062311;28;44452;-64
2022/04/06 04:14:16;;;;;;;29.88;10.43;;;;;;;7.64;92.36;99849.91;2062354;28;42074;-64
2022/04/06 04:15:18;;;;;;;21.63;11.00;;;;;;;7.64;92.58;99847.25;2062306;28;45802;-64
2022/04/06 04:16:19;;;;;;;24.67;9.70;;;;;;;7.64;92.25;99846.34;2063184;28;30294;-63
2022/04/06 04:17:21;;;;;;;24.73;10.80;;;;;;;7.64;91.61;99852.59;2063037;28;45230;-64
2022/04/06 04:18:23;;;;;;;22.90;10.60;;;;;;;7.65;92.09;99841.00;2062425;28;44787;-63
2022/04/06 04:19:24;;;;;;;22.38;9.65;;;;;;;7.65;91.53;99846.31;2063207;28;41784;-64
2022/04/06 04:20:26;;;;;;;22.77;9.52;;;;;;;7.65;92.01;99845.44;2062697;28;42840;-63
2022/04/06 04:21:32;;;;;;;23.35;10.88;;;;;;;7.64;92.03;99849.03;2063975;28;20043;-64
2022/04/06 04:22:33;;;;;;;23.40;10.65;;;;;;;7.64;91.86;99835.69;2061654;28;45259;-65
2022/04/06 04:23:35;;;;;;;21.48;10.13;;;;;;;7.63;92.01;99840.16;2062302;28;44507;-64
2022/04/06 04:24:37;;;;;;;28.45;10.65;;;;;;;7.65;91.83;99840.13;2062345;28;44526;-63
2022/04/06 04:25:39;;;;;;;23.40;10.60;;;;;;;7.65;91.48;99845.44;2071145;28;34877;-63
2022/04/06 04:26:41;;;;;;;22.08;10.63;;;;;;;7.64;91.46;99839.25;2069785;28;46006;-63
2022/04/06 04:27:43;;;;;;;21.48;9.23;;;;;;;7.65;92.09;99846.31;2063132;28;43380;-63
2022/04/06 04:28:45;;;;;;;22.00;10.15;;;;;;;7.67;91.53;99848.06;2062403;28;44785;-64
2022/04/06 04:29:46;;;;;;;24.52;9.57;;;;;;;7.67;91.09;99842.75;2063909;28;20043;-63
2022/04/06 04:30:48;;;;;;;21.92;9.75;;;;;;;7.67;91.07;99842.75;2062836;28;39271;-63
2022/04/06 04:31:52;;;;;;;22.25;9.15;;;;;;;7.68;91.23;99850.69;2062543;28;45450;-63
2022/04/06 04:32:54;;;;;;;19.08;8.95;;;;;;;7.66;91.80;99847.19;2070023;28;43118;-63
2022/04/06 04:33:57;;;;;;;24.45;10.35;;;;;;;7.65;91.80;99851.66;2069263;28;45830;-62
2022/04/06 04:35:00;;;;;;;19.92;9.98;;;;;;;7.65;92.37;99848.97;2062602;28;44754;-62
2022/04/06 04:36:02;;;;;;;22.20;9.32;;;;;;;7.63;92.52;99845.50;2063447;28;32227;-63
2022/04/06 04:37:06;;;;;;;26.63;10.57;;;;;;;7.63;92.28;99848.16;2062265;28;44793;-62
2022/04/06 04:38:07;;;;;;;21.75;9.98;;;;;;;7.62;92.82;99841.06;2062442;28;43182;-63
2022/04/06 04:39:09;;;;;;;22.88;10.18;;;;;;;7.63;92.06;99847.28;2062378;28;44459;-63
2022/04/06 04:40:11;;;;;;;18.02;10.35;;;;;;;7.62;92.78;99843.72;2062436;28;46311;-63
2022/04/06 04:41:13;;;;;;;22.13;9.85;;;;;;;7.62;92.07;99842.88;2062151;28;42555;-63
2022/04/06 04:42:17;;;;;;;27.80;10.25;;;;;;;7.60;92.23;99853.56;2063020;28;34572;-63
2022/04/06 04:43:18;;;;;;;23.67;10.50;;;;;;;7.60;92.83;99842.91;2062062;28;44691;-63
2022/04/06 04:44:20;;;;;;;27.73;11.02;;;;;;;7.60;92.34;99839.38;2062788;28;45928;-62
2022/04/06 04:45:22;;;;;;;19.33;9.45;;;;;;;7.59;92.58;99843.84;2062315;28;46097;-62
2022/04/06 04:46:24;;;;;;;22.98;10.82;;;;;;;7.59;92.96;99848.28;2062649;28;44065;-62
2022/04/06 04:47:25;;;;;;;22.60;10.63;;;;;;;7.57;93.06;99850.13;2061055;28;46502;-63
2022/04/06 04:48:27;;;;;;;24.63;10.57;;;;;;;7.56;93.72;99841.25;2062070;28;43546;-63
2022/04/06 04:49:29;;;;;;;23.80;10.20;;;;;;;7.55;93.60;99843.97;2062155;28;44088;-62
2022/04/06 04:50:30;;;;;;;30.83;11.43;;;;;;;7.54;93.74;99843.09;2062739;28;45460;-63
2022/04/06 04:51:34;;;;;;;23.02;10.55;;;;;;;7.54;93.51;99847.56;2062367;28;43443;-63
2022/04/06 04:52:36;;;;;;;23.48;11.10;;;;;;;7.54;93.70;99842.22;2062791;28;40039;-63
2022/04/06 04:53:37;;;;;;;27.77;11.13;;;;;;;7.53;93.77;99846.66;2062163;28;46038;-63
2022/04/06 04:54:39;;;;;;;25.23;11.68;;;;;;;7.52;93.59;99839.59;2062426;28;44164;-63